Time;durP1;ratioP1;P1;durP2;ratioP2;P2;SDS_P1;SDS_P2;PMS_P1;PMS_P2;Temp;Humidity;BMP_temperature;BMP_pressure;BME280_temperature;BME280_humidity;BME280_pressure;Samples;Min_cycle;Max_cycle;Signal;HPM_P1;HPM_P2
2023/05/18 00:02:14;;;;;;;12.50;2.90;;;8.40;99.90;;;;;;5063164;28;20029;-75
2023/05/18 00:04:41;;;;;;;15.15;3.33;;;8.40;99.90;;;;;;5064259;28;20032;-75
2023/05/18 00:07:08;;;;;;;14.75;2.90;;;8.40;99.90;;;;;;5063965;28;20017;-72
2023/05/18 00:09:34;;;;;;;13.80;3.28;;;8.40;99.90;;;;;;5064375;28;20017;-73
2023/05/18 00:12:01;;;;;;;9.02;2.35;;;8.40;99.90;;;;;;5063120;28;20033;-74
2023/05/18 00:14:27;;;;;;;14.18;3.13;;;8.40;99.90;;;;;;5061406;28;20025;-74
2023/05/18 00:16:53;;;;;;;15.35;2.80;;;8.40;99.90;;;;;;5063945;28;20032;-74
2023/05/18 00:19:20;;;;;;;9.98;2.40;;;8.40;99.90;;;;;;5062153;28;20035;-73
2023/05/18 00:21:47;;;;;;;17.08;3.10;;;8.30;99.90;;;;;;5062027;28;20025;-74
2023/05/18 00:24:14;;;;;;;14.98;2.85;;;8.30;99.90;;;;;;5063928;28;20037;-73
2023/05/18 00:26:41;;;;;;;10.50;2.40;;;8.30;99.90;;;;;;5063740;28;20065;-73
2023/05/18 00:29:07;;;;;;;20.90;3.33;;;8.30;99.90;;;;;;5063880;28;20504;-73
2023/05/18 00:31:37;;;;;;;15.95;2.63;;;8.30;99.90;;;;;;5061875;28;20045;-75
2023/05/18 00:34:12;;;;;;;15.15;2.67;;;8.30;99.90;;;;;;5061248;28;20021;-73
2023/05/18 00:36:38;;;;;;;11.38;2.95;;;8.30;99.90;;;;;;5063849;28;20028;-73
2023/05/18 00:39:05;;;;;;;9.07;2.22;;;8.30;99.90;;;;;;5062767;28;20028;-73
2023/05/18 00:41:31;;;;;;;12.70;2.88;;;8.30;99.90;;;;;;5063206;28;20026;-74
2023/05/18 00:43:57;;;;;;;12.43;2.97;;;8.30;99.90;;;;;;5063476;28;20028;-73
2023/05/18 00:46:24;;;;;;;13.05;2.60;;;8.30;99.90;;;;;;5060845;28;20025;-75
2023/05/18 00:48:51;;;;;;;12.95;2.40;;;8.30;99.90;;;;;;5061461;28;20105;-74
2023/05/18 00:51:22;;;;;;;15.88;3.00;;;8.30;99.90;;;;;;5062852;28;20454;-72
2023/05/18 00:53:49;;;;;;;12.95;2.80;;;8.40;99.90;;;;;;5061707;28;20532;-72
2023/05/18 00:56:15;;;;;;;12.77;3.00;;;8.40;99.90;;;;;;5063098;28;20085;-73
2023/05/18 00:58:41;;;;;;;15.77;3.08;;;8.30;99.90;;;;;;5063376;28;20021;-74
2023/05/18 01:01:08;;;;;;;14.73;2.70;;;8.30;99.90;;;;;;5061451;28;20027;-75
2023/05/18 01:03:36;;;;;;;13.93;2.90;;;8.30;99.90;;;;;;5062314;28;20049;-73
2023/05/18 01:06:05;;;;;;;15.18;3.00;;;8.30;99.90;;;;;;5062584;28;20021;-74
2023/05/18 01:08:32;;;;;;;18.45;2.60;;;8.30;99.90;;;;;;5060279;28;20028;-74
2023/05/18 01:11:17;;;;;;;11.00;2.60;;;8.20;99.90;;;;;;5061544;28;20402;-74
2023/05/18 01:13:53;;;;;;;11.07;2.50;;;8.20;99.90;;;;;;5061627;28;20041;-75
2023/05/18 01:16:25;;;;;;;7.93;2.83;;;8.20;99.90;;;;;;5061067;28;20048;-73
2023/05/18 01:19:15;;;;;;;8.25;2.70;;;8.20;99.90;;;;;;5061139;28;20044;-74
2023/05/18 01:21:57;;;;;;;7.85;2.53;;;8.20;99.90;;;;;;5061156;28;20135;-73
2023/05/18 01:24:34;;;;;;;12.55;2.60;;;8.10;99.90;;;;;;5061721;28;20025;-73
2023/05/18 01:27:00;;;;;;;12.30;2.75;;;8.20;99.90;;;;;;5060983;28;20059;-73
2023/05/18 01:29:29;;;;;;;10.07;2.80;;;8.20;99.90;;;;;;5062148;28;20024;-73
2023/05/18 01:31:55;;;;;;;9.95;2.38;;;8.20;99.90;;;;;;5061002;28;20413;-72
2023/05/18 01:34:21;;;;;;;11.82;2.63;;;8.20;99.90;;;;;;5061073;28;20049;-72
2023/05/18 01:36:46;;;;;;;12.02;2.80;;;8.20;99.90;;;;;;5061434;28;20025;-74
2023/05/18 01:39:13;;;;;;;15.43;2.95;;;8.20;99.90;;;;;;5062323;28;20104;-74
2023/05/18 01:41:47;;;;;;;10.68;2.75;;;8.20;99.90;;;;;;5062287;28;20033;-73
2023/05/18 01:44:25;;;;;;;;;;;8.20;99.90;;;;;;5061327;28;20017;-75
2023/05/18 01:47:08;;;;;;;14.07;3.15;;;8.20;99.90;;;;;;5061406;28;20346;-75
2023/05/18 01:49:55;;;;;;;11.23;2.92;;;8.30;99.90;;;;;;5062107;28;20084;-73
2023/05/18 01:52:34;;;;;;;12.73;2.97;;;8.30;99.90;;;;;;5061345;28;20040;-73
2023/05/18 01:55:02;;;;;;;13.27;3.00;;;8.30;99.90;;;;;;5062101;28;20037;-74
2023/05/18 01:57:31;;;;;;;18.73;3.20;;;8.30;99.90;;;;;;5061384;28;20093;-74
2023/05/18 02:00:03;;;;;;;17.27;3.42;;;8.20;99.90;;;;;;5061751;28;20033;-73
2023/05/18 02:02:28;;;;;;;11.55;3.05;;;8.20;99.90;;;;;;5060524;28;20053;-74
2023/05/18 02:04:54;;;;;;;11.35;2.80;;;8.20;99.90;;;;;;5059088;28;20025;-74
2023/05/18 02:07:19;;;;;;;15.35;3.10;;;8.20;99.90;;;;;;5061842;28;20036;-73
2023/05/18 02:09:45;;;;;;;14.13;2.78;;;8.20;99.90;;;;;;5061934;28;20100;-74
2023/05/18 02:12:11;;;;;;;18.85;2.97;;;8.20;99.90;;;;;;5061319;28;20071;-75
2023/05/18 02:14:36;;;;;;;12.68;3.05;;;8.10;99.90;;;;;;5060725;28;20033;-73
2023/05/18 02:17:02;;;;;;;14.38;2.72;;;8.10;99.90;;;;;;5061403;28;20017;-73
2023/05/18 02:19:29;;;;;;;13.10;2.70;;;8.10;99.90;;;;;;5059939;28;20021;-72
2023/05/18 02:21:56;;;;;;;9.63;2.72;;;8.10;99.90;;;;;;5061057;28;20028;-72
2023/05/18 02:24:22;;;;;;;9.70;2.90;;;8.10;99.90;;;;;;5061261;28;21351;-73
2023/05/18 02:26:47;;;;;;;11.95;3.10;;;8.10;99.90;;;;;;5061346;28;20044;-74
2023/05/18 02:29:13;;;;;;;8.45;2.97;;;8.10;99.90;;;;;;5061925;28;20075;-73
2023/05/18 02:31:39;;;;;;;12.90;3.30;;;8.10;99.90;;;;;;5061572;28;20040;-74
2023/05/18 02:34:05;;;;;;;11.57;3.08;;;8.10;99.90;;;;;;5060824;28;20046;-74
2023/05/18 02:36:35;;;;;;;18.67;3.30;;;8.10;99.90;;;;;;5061591;28;20032;-73
2023/05/18 02:39:03;;;;;;;17.83;3.15;;;8.20;99.90;;;;;;5060626;28;20473;-74
2023/05/18 02:41:29;;;;;;;15.30;3.17;;;8.20;99.90;;;;;;5061151;28;20029;-73
2023/05/18 02:43:55;;;;;;;14.38;2.85;;;8.20;99.90;;;;;;5061621;28;20374;-74
2023/05/18 02:46:20;;;;;;;11.23;3.20;;;8.20;99.90;;;;;;5061133;28;20033;-73
2023/05/18 02:48:46;;;;;;;14.27;3.13;;;8.20;99.90;;;;;;5059894;28;20049;-73
2023/05/18 02:51:12;;;;;;;9.30;2.70;;;8.20;99.90;;;;;;5060325;28;20405;-73
2023/05/18 02:53:38;;;;;;;13.05;3.25;;;8.20;99.90;;;;;;5061049;28;20021;-73
2023/05/18 02:56:04;;;;;;;14.68;2.92;;;8.20;99.90;;;;;;5061219;28;20032;-73
2023/05/18 02:58:30;;;;;;;8.98;2.65;;;8.20;99.90;;;;;;5060402;28;20097;-72
2023/05/18 03:00:56;;;;;;;18.17;3.58;;;8.20;99.90;;;;;;5060506;28;20081;-74
2023/05/18 03:03:25;;;;;;;9.48;2.50;;;8.10;99.90;;;;;;5059960;28;20456;-73
2023/05/18 03:05:53;;;;;;;10.65;3.00;;;8.20;99.90;;;;;;5059543;28;20031;-75
2023/05/18 03:08:21;;;;;;;12.27;3.22;;;8.20;99.90;;;;;;5060668;28;20530;-74
2023/05/18 03:10:47;;;;;;;8.82;2.92;;;8.10;99.90;;;;;;5065057;28;20044;-75
2023/05/18 03:13:13;;;;;;;11.80;3.05;;;8.20;99.90;;;;;;5064114;28;20033;-74
2023/05/18 03:15:39;;;;;;;13.45;3.10;;;8.20;99.90;;;;;;5064250;28;20063;-73
2023/05/18 03:18:05;;;;;;;14.32;3.63;;;8.20;99.90;;;;;;5065076;28;20051;-73
2023/05/18 03:20:30;;;;;;;14.20;3.20;;;8.10;99.90;;;;;;5065053;28;20020;-73
2023/05/18 03:22:56;;;;;;;16.73;3.22;;;8.10;99.90;;;;;;5064400;28;20032;-74
2023/05/18 03:25:24;;;;;;;9.27;3.20;;;8.10;99.90;;;;;;5063068;28;20025;-75
2023/05/18 03:27:54;;;;;;;9.82;3.00;;;8.10;99.90;;;;;;5063513;28;20037;-75
2023/05/18 03:30:19;;;;;;;11.68;3.50;;;8.10;99.90;;;;;;5063307;28;20470;-74
2023/05/18 03:32:46;;;;;;;16.05;2.80;;;8.10;99.90;;;;;;5063349;28;20105;-75
2023/05/18 03:35:12;;;;;;;16.60;3.42;;;8.10;99.90;;;;;;5063204;28;20029;-75
2023/05/18 03:37:38;;;;;;;13.27;3.28;;;8.10;99.90;;;;;;5063346;28;20047;-73
2023/05/18 03:40:15;;;;;;;19.33;2.75;;;8.10;99.90;;;;;;5064247;28;20077;-75
2023/05/18 03:42:41;;;;;;;14.18;3.38;;;8.10;99.90;;;;;;5064177;28;20082;-73
2023/05/18 03:45:09;;;;;;;11.63;2.90;;;8.20;99.90;;;;;;5064533;28;20112;-75
2023/05/18 03:47:34;;;;;;;13.70;2.75;;;8.20;99.90;;;;;;5062287;28;20021;-73
2023/05/18 03:50:01;;;;;;;14.40;3.15;;;8.20;99.90;;;;;;5063623;28;20063;-74
2023/05/18 03:52:28;;;;;;;17.08;3.53;;;8.10;99.90;;;;;;5064461;28;20072;-75
2023/05/18 03:54:54;;;;;;;15.77;2.90;;;8.10;99.90;;;;;;5063403;28;20071;-74
2023/05/18 03:57:20;;;;;;;13.75;2.47;;;8.10;99.90;;;;;;5062473;28;20029;-75
2023/05/18 03:59:45;;;;;;;11.25;2.83;;;8.10;99.90;;;;;;5063014;28;20025;-73
2023/05/18 04:02:11;;;;;;;15.45;3.10;;;8.10;99.90;;;;;;5062309;28;20117;-73
2023/05/18 04:04:40;;;;;;;11.70;3.08;;;8.10;99.90;;;;;;5063894;28;20029;-74
2023/05/18 04:07:07;;;;;;;14.70;3.58;;;8.20;99.90;;;;;;5062788;28;20039;-75
2023/05/18 04:09:32;;;;;;;14.10;2.80;;;8.20;99.90;;;;;;5060987;28;20432;-74
2023/05/18 04:11:58;;;;;;;15.85;2.97;;;8.20;99.90;;;;;;5063422;28;20051;-74
2023/05/18 04:14:26;;;;;;;12.82;2.83;;;8.30;99.90;;;;;;5063861;28;20021;-72
2023/05/18 04:16:52;;;;;;;17.30;3.22;;;8.30;99.90;;;;;;5062849;28;20033;-74
2023/05/18 04:19:18;;;;;;;14.68;3.50;;;8.30;99.90;;;;;;5063673;28;20028;-74
2023/05/18 04:21:46;;;;;;;10.23;2.58;;;8.40;99.90;;;;;;5062632;28;20017;-74
2023/05/18 04:24:13;;;;;;;15.20;3.00;;;8.40;99.90;;;;;;5063773;28;20025;-73
2023/05/18 04:26:39;;;;;;;10.93;3.05;;;8.40;99.90;;;;;;5063529;28;20084;-73
2023/05/18 04:29:06;;;;;;;9.35;2.75;;;8.40;99.90;;;;;;5062444;28;20033;-73
2023/05/18 04:31:33;;;;;;;12.77;2.90;;;8.40;99.90;;;;;;5062633;28;20021;-73
2023/05/18 04:33:59;;;;;;;12.35;2.85;;;8.50;99.90;;;;;;5063244;28;20017;-74
2023/05/18 04:36:29;;;;;;;12.00;2.88;;;8.50;99.90;;;;;;5061482;28;20436;-74
2023/05/18 04:38:58;;;;;;;15.73;3.08;;;8.50;99.90;;;;;;5063634;28;20017;-73
2023/05/18 04:41:24;;;;;;;12.77;3.40;;;8.50;99.90;;;;;;5062703;28;20482;-74
2023/05/18 04:43:51;;;;;;;12.68;3.00;;;8.50;99.90;;;;;;5063187;28;20033;-74
2023/05/18 04:46:17;;;;;;;16.27;3.08;;;8.60;99.90;;;;;;5062624;28;20021;-74
2023/05/18 04:48:42;;;;;;;13.57;3.20;;;8.60;99.90;;;;;;5063322;28;20067;-75
2023/05/18 04:51:08;;;;;;;10.98;2.70;;;8.70;99.90;;;;;;5062183;28;20040;-75
2023/05/18 04:53:34;;;;;;;13.73;2.70;;;8.70;99.90;;;;;;5063096;28;20028;-73
2023/05/18 04:56:00;;;;;;;12.15;2.70;;;8.70;99.90;;;;;;5061947;28;20477;-74
2023/05/18 04:58:26;;;;;;;11.25;2.47;;;8.70;99.90;;;;;;5062597;28;20024;-73
2023/05/18 05:00:52;;;;;;;11.05;2.97;;;8.70;99.90;;;;;;5061717;28;20033;-74
2023/05/18 05:03:18;;;;;;;13.10;2.92;;;8.70;99.90;;;;;;5061328;28;20127;-75
2023/05/18 05:05:44;;;;;;;12.65;2.75;;;8.80;99.90;;;;;;5061000;28;20084;-74
2023/05/18 05:08:10;;;;;;;14.57;3.00;;;8.80;99.90;;;;;;5062169;28;20021;-74
2023/05/18 05:10:36;;;;;;;16.25;2.55;;;8.80;99.90;;;;;;5061679;28;20119;-74
2023/05/18 05:13:02;;;;;;;10.45;2.70;;;8.90;99.90;;;;;;5060947;28;20068;-74
2023/05/18 05:15:27;;;;;;;16.42;2.50;;;8.90;99.90;;;;;;5062621;28;20104;-73
2023/05/18 05:17:53;;;;;;;10.68;2.50;;;8.90;99.90;;;;;;5061283;28;20107;-73
2023/05/18 05:20:19;;;;;;;11.13;2.22;;;8.90;99.90;;;;;;5062665;28;20071;-74
2023/05/18 05:22:44;;;;;;;12.75;2.67;;;9.00;99.90;;;;;;5062527;28;20021;-73
2023/05/18 05:25:10;;;;;;;8.68;2.58;;;9.00;99.90;;;;;;5061836;28;20085;-73
2023/05/18 05:27:36;;;;;;;22.30;2.78;;;9.10;99.90;;;;;;5061072;28;20829;-74
2023/05/18 05:30:02;;;;;;;10.80;2.50;;;9.10;99.90;;;;;;5060678;28;20021;-73
2023/05/18 05:32:28;;;;;;;12.95;3.00;;;9.10;99.90;;;;;;5061859;28;20056;-73
2023/05/18 05:34:53;;;;;;;7.78;2.42;;;9.20;99.90;;;;;;5059733;28;20037;-73
2023/05/18 05:37:19;;;;;;;10.50;2.55;;;9.20;99.90;;;;;;5060623;28;20039;-72
2023/05/18 05:39:45;;;;;;;12.90;2.42;;;9.20;99.90;;;;;;5060832;28;20097;-72
2023/05/18 05:42:10;;;;;;;12.95;2.65;;;9.20;99.90;;;;;;5061309;28;20025;-72
2023/05/18 05:44:36;;;;;;;12.30;3.08;;;9.20;99.90;;;;;;5060981;28;20025;-74
2023/05/18 05:47:02;;;;;;;13.40;3.13;;;9.30;99.90;;;;;;5060656;28;20032;-73
2023/05/18 05:49:27;;;;;;;11.63;2.80;;;9.30;99.90;;;;;;5062414;28;20045;-72
2023/05/18 05:51:53;;;;;;;15.73;2.90;;;9.30;99.90;;;;;;5061717;28;20041;-72
2023/05/18 05:54:19;;;;;;;10.95;2.78;;;9.40;99.90;;;;;;5061186;28;20032;-73
2023/05/18 05:56:44;;;;;;;8.20;2.28;;;9.40;99.90;;;;;;5059517;28;20029;-73
2023/05/18 05:59:10;;;;;;;15.38;2.97;;;9.50;99.90;;;;;;5061437;28;20042;-73
2023/05/18 06:01:35;;;;;;;7.90;2.13;;;9.50;99.90;;;;;;5059999;28;20032;-72
2023/05/18 06:04:03;;;;;;;11.75;3.35;;;9.50;99.90;;;;;;5061339;28;20021;-73
2023/05/18 06:06:28;;;;;;;19.63;3.85;;;9.50;99.90;;;;;;5059663;28;20437;-73
2023/05/18 06:08:54;;;;;;;9.13;2.83;;;9.50;99.90;;;;;;5059568;28;20036;-73
2023/05/18 06:11:20;;;;;;;12.45;2.38;;;9.60;99.90;;;;;;5060233;28;20091;-72
2023/05/18 06:13:45;;;;;;;12.70;2.85;;;9.60;99.90;;;;;;5060234;28;20047;-72
2023/05/18 06:16:11;;;;;;;12.55;2.92;;;9.60;99.90;;;;;;5060399;28;20025;-72
2023/05/18 06:18:36;;;;;;;12.63;3.45;;;9.70;99.90;;;;;;5059213;28;20097;-73
2023/05/18 06:21:02;;;;;;;10.32;2.65;;;9.70;99.90;;;;;;5058399;28;20029;-74
2023/05/18 06:23:28;;;;;;;12.02;2.40;;;9.70;99.90;;;;;;5059823;28;20100;-71
2023/05/18 06:25:53;;;;;;;16.80;3.03;;;9.70;99.90;;;;;;5054860;28;20029;-73
2023/05/18 06:28:19;;;;;;;13.45;3.15;;;9.80;99.90;;;;;;5057848;28;20112;-73
2023/05/18 06:30:45;;;;;;;13.68;3.03;;;9.80;99.90;;;;;;5059984;28;20025;-74
2023/05/18 06:33:10;;;;;;;9.27;2.67;;;9.80;99.90;;;;;;5059398;28;20494;-72
2023/05/18 06:35:36;;;;;;;14.38;2.70;;;9.90;99.90;;;;;;5057667;28;20029;-72
2023/05/18 06:38:01;;;;;;;10.10;2.53;;;9.90;99.90;;;;;;5052920;28;20749;-71
2023/05/18 06:40:28;;;;;;;12.52;3.28;;;9.90;99.90;;;;;;5054007;28;20028;-73
2023/05/18 06:42:53;;;;;;;12.55;2.47;;;9.90;99.90;;;;;;5059853;28;20021;-72
2023/05/18 06:45:19;;;;;;;15.20;3.10;;;9.90;99.90;;;;;;5063719;28;20045;-72
2023/05/18 06:47:45;;;;;;;9.57;2.70;;;9.90;99.90;;;;;;5063867;28;20021;-73
2023/05/18 06:50:10;;;;;;;9.43;3.17;;;9.90;99.90;;;;;;5062606;28;20068;-71
2023/05/18 06:52:36;;;;;;;7.05;2.17;;;10.00;99.90;;;;;;5065389;28;20043;-73
2023/05/18 06:55:02;;;;;;;10.73;3.15;;;10.00;99.90;;;;;;5065710;28;20033;-72
2023/05/18 06:57:28;;;;;;;19.75;3.35;;;10.00;99.90;;;;;;5064700;28;20102;-72
2023/05/18 06:59:54;;;;;;;7.07;2.85;;;10.00;99.90;;;;;;5059923;28;20033;-72
2023/05/18 07:02:20;;;;;;;13.50;3.13;;;10.00;99.90;;;;;;5063354;28;20017;-73
2023/05/18 07:04:46;;;;;;;5.25;2.28;;;10.10;99.90;;;;;;5063300;28;20639;-70
2023/05/18 07:07:12;;;;;;;10.07;3.20;;;10.10;99.90;;;;;;5065365;28;20021;-73
2023/05/18 07:09:38;;;;;;;10.93;2.75;;;10.20;99.90;;;;;;5065570;28;20031;-72
2023/05/18 07:12:04;;;;;;;8.88;3.17;;;10.20;99.90;;;;;;5064244;28;20047;-72
2023/05/18 07:14:29;;;;;;;11.15;2.80;;;10.20;99.90;;;;;;5064511;28;20029;-71
2023/05/18 07:16:55;;;;;;;12.45;2.92;;;10.30;99.90;;;;;;5063291;28;20031;-72
2023/05/18 07:19:20;;;;;;;14.57;2.70;;;10.30;99.90;;;;;;5064188;28;20033;-70
2023/05/18 07:21:46;;;;;;;9.32;2.55;;;10.30;99.90;;;;;;5065379;28;20188;-71
2023/05/18 07:24:12;;;;;;;10.20;2.67;;;10.30;99.90;;;;;;5064458;28;20017;-71
2023/05/18 07:26:37;;;;;;;14.70;3.38;;;10.40;99.90;;;;;;5063154;28;20031;-73
2023/05/18 07:29:03;;;;;;;7.90;2.80;;;10.40;99.90;;;;;;5065154;28;20032;-71
2023/05/18 07:31:28;;;;;;;9.80;2.63;;;10.40;99.90;;;;;;5061928;28;20035;-72
2023/05/18 07:33:54;;;;;;;14.15;3.38;;;10.50;99.90;;;;;;5061740;28;20037;-69
2023/05/18 07:36:20;;;;;;;13.55;3.20;;;10.60;99.90;;;;;;5064209;28;20033;-72
2023/05/18 07:38:46;;;;;;;12.80;2.97;;;10.70;99.90;;;;;;5064195;28;20013;-71
2023/05/18 07:41:11;;;;;;;8.30;2.60;;;10.70;99.90;;;;;;5062811;28;20025;-70
2023/05/18 07:43:37;;;;;;;9.10;2.47;;;10.70;99.90;;;;;;5061420;28;20021;-71
2023/05/18 07:46:02;;;;;;;12.57;2.55;;;10.70;99.90;;;;;;5059670;28;20029;-71
2023/05/18 07:48:28;;;;;;;10.20;2.83;;;10.70;99.90;;;;;;5059092;28;20053;-71
2023/05/18 07:50:54;;;;;;;11.23;2.97;;;10.70;99.90;;;;;;5059658;28;20493;-72
2023/05/18 07:53:19;;;;;;;9.75;2.58;;;10.80;99.90;;;;;;5062671;28;20032;-70
2023/05/18 07:55:45;;;;;;;9.52;2.90;;;10.80;99.90;;;;;;5060468;28;20051;-72
2023/05/18 07:58:12;;;;;;;12.82;2.80;;;10.80;99.90;;;;;;5061190;28;20036;-71
2023/05/18 08:00:37;;;;;;;10.80;3.05;;;10.80;99.90;;;;;;5061904;28;20025;-70
2023/05/18 08:03:05;;;;;;;8.45;2.70;;;10.90;99.90;;;;;;5059235;28;20065;-72
2023/05/18 08:05:31;;;;;;;12.77;3.05;;;10.90;99.90;;;;;;5060058;28;20017;-71
2023/05/18 08:07:56;;;;;;;13.00;2.58;;;11.00;99.90;;;;;;5061291;28;20028;-71
2023/05/18 08:10:22;;;;;;;8.63;2.65;;;11.10;99.90;;;;;;5062223;28;20029;-70
2023/05/18 08:12:47;;;;;;;20.10;3.58;;;11.20;99.90;;;;;;5063346;28;20044;-73
2023/05/18 08:15:13;;;;;;;11.23;3.10;;;11.20;99.90;;;;;;5060966;28;20040;-72
2023/05/18 08:17:39;;;;;;;9.57;3.03;;;11.20;99.90;;;;;;5062595;28;20054;-71
2023/05/18 08:20:07;;;;;;;9.07;3.15;;;11.10;99.90;;;;;;5061501;28;20035;-72
2023/05/18 08:22:32;;;;;;;6.53;2.63;;;11.10;99.90;;;;;;5062291;28;20078;-71
2023/05/18 08:24:59;;;;;;;12.70;2.90;;;11.10;99.90;;;;;;5063087;28;20112;-71
2023/05/18 08:27:25;;;;;;;10.20;3.13;;;11.00;99.90;;;;;;5062524;28;20026;-72
2023/05/18 08:29:50;;;;;;;13.52;2.83;;;11.00;99.90;;;;;;5058996;28;20417;-71
2023/05/18 08:32:16;;;;;;;15.90;3.45;;;10.90;99.90;;;;;;5062876;28;20059;-73
2023/05/18 08:34:42;;;;;;;16.02;3.20;;;10.90;99.90;;;;;;5062584;28;20111;-72
2023/05/18 08:37:08;;;;;;;12.88;3.13;;;10.90;99.90;;;;;;5062188;28;20465;-70
2023/05/18 08:39:35;;;;;;;9.07;2.80;;;10.90;99.90;;;;;;5063708;28;20516;-70
2023/05/18 08:42:21;;;;;;;13.90;3.35;;;10.90;99.90;;;;;;5062243;28;20028;-72
2023/05/18 08:45:11;;;;;;;10.52;2.88;;;11.00;99.90;;;;;;5063384;28;20021;-74
2023/05/18 08:47:37;;;;;;;12.13;3.17;;;11.00;99.90;;;;;;5060997;28;20052;-71
2023/05/18 08:50:04;;;;;;;13.38;3.38;;;11.00;99.90;;;;;;5059859;28;20049;-73
2023/05/18 08:52:35;;;;;;;10.35;3.20;;;11.00;99.90;;;;;;5057701;28;20049;-71
2023/05/18 08:55:05;;;;;;;13.10;3.38;;;11.00;99.90;;;;;;5059728;28;20025;-72
2023/05/18 08:57:34;;;;;;;13.07;3.45;;;11.10;99.90;;;;;;5055576;28;20017;-71
2023/05/18 09:00:01;;;;;;;11.85;3.60;;;11.20;99.90;;;;;;5058429;28;20013;-72
2023/05/18 09:02:28;;;;;;;11.18;2.95;;;11.40;99.90;;;;;;5059441;28;20052;-70
2023/05/18 09:04:55;;;;;;;12.40;3.22;;;11.50;99.90;;;;;;5061296;28;20025;-71
2023/05/18 09:07:22;;;;;;;10.02;3.42;;;11.70;99.90;;;;;;5055520;28;20048;-71
2023/05/18 09:09:48;;;;;;;12.82;3.30;;;12.00;99.90;;;;;;5060958;28;20017;-72
2023/05/18 09:12:15;;;;;;;8.05;3.22;;;11.90;99.90;;;;;;5061376;28;20120;-72
2023/05/18 09:14:42;;;;;;;10.95;3.45;;;11.90;99.90;;;;;;5061328;28;20580;-71
2023/05/18 09:17:08;;;;;;;10.20;2.78;;;11.80;99.90;;;;;;5057668;28;20458;-70
2023/05/18 09:19:34;;;;;;;9.55;3.08;;;11.70;99.90;;;;;;5057780;28;20123;-71
2023/05/18 09:22:00;;;;;;;10.93;3.00;;;11.70;99.90;;;;;;5058906;28;20400;-71
2023/05/18 09:24:26;;;;;;;10.88;3.33;;;11.70;99.90;;;;;;5047767;28;20040;-72
2023/05/18 09:26:52;;;;;;;14.30;3.35;;;11.70;99.90;;;;;;5056460;28;20067;-71
2023/05/18 09:29:23;;;;;;;11.85;3.45;;;11.70;99.90;;;;;;5055745;28;20029;-71
2023/05/18 09:31:49;;;;;;;8.73;3.30;;;11.70;99.90;;;;;;5057053;28;20044;-71
2023/05/18 09:34:15;;;;;;;14.80;3.08;;;11.80;99.90;;;;;;5057844;28;20029;-73
2023/05/18 09:36:45;;;;;;;14.55;3.40;;;11.90;99.90;;;;;;5058289;28;20025;-70
2023/05/18 09:39:11;;;;;;;9.43;3.40;;;12.00;99.90;;;;;;5054782;28;20023;-72
2023/05/18 09:41:38;;;;;;;10.48;3.22;;;12.10;99.90;;;;;;5060920;28;20052;-71
2023/05/18 09:44:08;;;;;;;8.77;3.10;;;12.10;99.90;;;;;;5059750;28;20055;-72
2023/05/18 09:46:38;;;;;;;10.82;3.20;;;12.10;99.90;;;;;;5060834;28;20067;-72
2023/05/18 09:49:05;;;;;;;12.35;3.42;;;12.00;99.90;;;;;;5061701;28;20052;-72
2023/05/18 09:51:37;;;;;;;12.77;3.58;;;12.00;99.90;;;;;;5058453;28;20048;-71
2023/05/18 09:54:05;;;;;;;14.95;3.53;;;12.00;99.90;;;;;;5060980;28;20079;-70
2023/05/18 09:56:35;;;;;;;12.98;3.92;;;11.90;99.90;;;;;;5061000;28;20064;-72
2023/05/18 09:59:12;;;;;;;9.05;3.47;;;11.90;99.90;;;;;;5061070;28;20029;-73
2023/05/18 10:01:54;;;;;;;17.20;4.15;;;11.90;99.90;;;;;;5057923;28;20025;-73
2023/05/18 10:04:20;;;;;;;12.68;3.60;;;11.90;99.90;;;;;;5058631;28;20088;-71
2023/05/18 10:06:49;;;;;;;17.38;4.32;;;11.90;99.90;;;;;;5057876;28;20044;-72
2023/05/18 10:09:15;;;;;;;13.30;3.80;;;11.90;99.90;;;;;;5060526;28;20025;-71
2023/05/18 10:11:42;;;;;;;9.02;4.05;;;11.90;99.90;;;;;;5057688;28;20041;-70
2023/05/18 10:14:10;;;;;;;15.80;3.50;;;11.90;99.90;;;;;;5058238;28;20082;-71
2023/05/18 10:16:35;;;;;;;10.23;3.50;;;11.90;99.90;;;;;;5059398;28;20099;-72
2023/05/18 10:19:05;;;;;;;10.50;3.75;;;12.00;99.90;;;;;;5061896;28;20473;-71
2023/05/18 10:21:33;;;;;;;13.15;3.63;;;12.10;99.90;;;;;;5061158;28;20033;-71
2023/05/18 10:24:02;;;;;;;12.15;4.00;;;12.20;99.90;;;;;;5060995;28;20044;-71
2023/05/18 10:26:33;;;;;;;12.27;3.50;;;12.20;99.90;;;;;;5059834;28;20024;-70
2023/05/18 10:28:59;;;;;;;10.52;3.75;;;12.30;99.90;;;;;;5059671;28;20025;-71
2023/05/18 10:31:28;;;;;;;17.08;4.28;;;12.50;99.90;;;;;;5054857;28;20178;-71
2023/05/18 10:33:55;;;;;;;12.25;3.65;;;12.70;99.90;;;;;;5057304;28;20493;-70
2023/05/18 10:36:24;;;;;;;14.32;3.70;;;12.90;99.90;;;;;;5058702;28;20033;-71
2023/05/18 10:38:50;;;;;;;9.10;3.60;;;13.10;99.90;;;;;;5059361;28;20100;-72
2023/05/18 10:41:20;;;;;;;10.15;3.63;;;13.20;99.90;;;;;;5061138;28;20013;-71
2023/05/18 10:43:46;;;;;;;11.65;3.70;;;13.40;99.90;;;;;;5057356;28;20021;-72
2023/05/18 10:46:14;;;;;;;9.65;4.07;;;13.30;99.90;;;;;;5055161;28;20058;-70
2023/05/18 10:48:44;;;;;;;15.40;3.67;;;13.30;99.90;;;;;;5061217;28;20047;-71
2023/05/18 10:51:11;;;;;;;8.57;3.10;;;13.30;99.90;;;;;;5052776;28;20029;-70
2023/05/18 10:53:38;;;;;;;14.15;4.13;;;13.30;99.90;;;;;;5058613;28;20354;-73
2023/05/18 10:56:04;;;;;;;11.38;3.70;;;13.20;99.90;;;;;;5058852;28;20033;-71
2023/05/18 10:58:30;;;;;;;7.80;3.22;;;13.20;99.90;;;;;;5060309;28;20025;-72
2023/05/18 11:00:58;;;;;;;14.05;3.97;;;13.40;99.90;;;;;;5060244;28;20120;-71
2023/05/18 11:03:25;;;;;;;9.93;3.63;;;13.70;99.90;;;;;;5058571;28;20032;-73
2023/05/18 11:06:01;;;;;;;18.98;4.25;;;13.80;99.90;;;;;;5060436;28;20025;-73
2023/05/18 11:08:27;;;;;;;10.50;3.88;;;13.90;99.90;;;;;;5061913;28;20025;-73
2023/05/18 11:11:06;;;;;;;11.55;3.75;;;14.10;99.90;;;;;;5061654;28;20028;-74
2023/05/18 11:13:33;;;;;;;9.45;4.05;;;14.20;99.90;;;;;;5060365;28;20098;-74
2023/05/18 11:15:58;;;;;;;13.45;4.65;;;14.40;99.90;;;;;;5060111;28;20071;-74
2023/05/18 11:18:44;;;;;;;19.15;4.47;;;14.60;99.90;;;;;;5059233;28;20369;-73
2023/05/18 11:21:35;;;;;;;12.93;4.07;;;14.80;99.90;;;;;;5057328;28;20032;-73
2023/05/18 11:24:22;;;;;;;13.57;3.72;;;14.80;99.90;;;;;;5057267;28;20389;-70
2023/05/18 11:26:52;;;;;;;11.23;3.30;;;15.00;99.90;;;;;;5057829;28;20081;-72
2023/05/18 11:29:40;;;;;;;14.40;3.90;;;15.20;99.90;;;;;;5058877;28;20473;-73
2023/05/18 11:32:21;;;;;;;12.15;3.97;;;15.10;99.90;;;;;;5064172;28;20047;-71
2023/05/18 11:34:52;;;;;;;10.02;3.75;;;15.20;99.90;;;;;;5062720;28;20371;-73
2023/05/18 11:37:37;;;;;;;14.32;4.05;;;15.10;99.90;;;;;;5063357;28;20117;-72
2023/05/18 11:40:41;;;;;;;13.52;4.28;;;15.10;99.90;;;;;;5064192;28;20040;-69
2023/05/18 11:43:07;;;;;;;8.57;4.07;;;15.10;99.90;;;;;;5064459;28;20128;-70
2023/05/18 11:45:32;;;;;;;13.13;3.85;;;14.80;99.90;;;;;;5064409;28;20874;-68
2023/05/18 11:48:01;;;;;;;13.02;3.90;;;14.80;99.90;;;;;;5064554;28;20021;-73
2023/05/18 11:50:29;;;;;;;10.63;3.63;;;14.90;99.90;;;;;;5063889;28;20468;-73
2023/05/18 11:52:58;;;;;;;11.27;3.85;;;15.00;99.90;;;;;;5064148;28;20482;-72
2023/05/18 11:55:37;;;;;;;7.20;3.58;;;15.00;99.90;;;;;;5064533;28;20029;-73
2023/05/18 11:58:02;;;;;;;16.40;3.97;;;15.20;99.90;;;;;;5062932;28;20028;-71
2023/05/18 12:00:30;;;;;;;12.40;3.95;;;15.40;99.90;;;;;;5063970;28;20033;-72
2023/05/18 12:02:56;;;;;;;11.02;4.00;;;15.40;99.90;;;;;;5064067;28;20029;-72
2023/05/18 12:05:22;;;;;;;14.55;4.63;;;15.40;99.90;;;;;;5061006;28;20051;-71
2023/05/18 12:07:53;;;;;;;11.85;4.13;;;15.30;99.90;;;;;;5062747;28;20025;-72
2023/05/18 12:10:20;;;;;;;12.40;4.05;;;15.40;99.90;;;;;;5064300;28;20029;-69
2023/05/18 12:12:52;;;;;;;11.95;3.95;;;15.50;99.90;;;;;;5063812;28;20038;-72
2023/05/18 12:15:21;;;;;;;9.25;3.78;;;15.70;99.90;;;;;;5064107;28;20052;-74
2023/05/18 12:17:49;;;;;;;15.52;3.88;;;15.90;99.90;;;;;;5059318;28;20032;-73
2023/05/18 12:20:15;;;;;;;10.95;4.07;;;16.10;99.90;;;;;;5060528;28;20021;-73
2023/05/18 12:22:43;;;;;;;9.63;3.72;;;16.30;99.90;;;;;;5062526;28;20035;-73
2023/05/18 12:25:10;;;;;;;12.80;3.75;;;16.40;99.90;;;;;;5063803;28;20531;-72
2023/05/18 12:27:39;;;;;;;11.07;3.58;;;16.50;99.90;;;;;;5063268;28;20024;-72
2023/05/18 12:30:12;;;;;;;9.48;3.85;;;16.60;99.90;;;;;;5063842;28;20367;-71
2023/05/18 12:32:43;;;;;;;10.20;3.67;;;16.80;99.90;;;;;;5062058;28;20179;-72
2023/05/18 12:35:08;;;;;;;11.07;3.42;;;16.90;99.90;;;;;;5063856;28;20037;-73
2023/05/18 12:37:43;;;;;;;9.85;3.75;;;17.00;99.90;;;;;;5062661;28;20025;-72
2023/05/18 12:40:11;;;;;;;12.40;4.18;;;17.20;99.90;;;;;;5062649;28;20025;-73
2023/05/18 12:42:37;;;;;;;11.63;3.75;;;17.30;99.90;;;;;;5061287;28;20075;-72
2023/05/18 12:45:03;;;;;;;8.35;3.50;;;17.40;99.90;;;;;;5062593;28;20025;-73
2023/05/18 12:47:32;;;;;;;11.93;3.67;;;17.50;99.90;;;;;;5042459;28;20037;-72
2023/05/18 12:50:01;;;;;;;14.98;3.67;;;17.60;99.90;;;;;;5053754;28;20049;-71